sensor_id;sensor_type;location;lat;lon;timestamp;P1;durP1;ratioP1;P2;durP2;ratioP2
24229;SDS011;12362;50.004;8.006;2023-04-08T00:00:43;0.57;;;0.57;;
24229;SDS011;12362;50.004;8.006;2023-04-08T00:03:48;1.40;;;0.63;;
24229;SDS011;12362;50.004;8.006;2023-04-08T00:10:34;0.80;;;0.80;;
24229;SDS011;12362;50.004;8.006;2023-04-08T00:13:18;1.02;;;0.60;;
24229;SDS011;12362;50.004;8.006;2023-04-08T00:16:11;1.23;;;0.60;;
24229;SDS011;12362;50.004;8.006;2023-04-08T00:19:07;1.65;;;0.32;;
24229;SDS011;12362;50.004;8.006;2023-04-08T00:22:08;1.63;;;0.35;;
24229;SDS011;12362;50.004;8.006;2023-04-08T00:25:00;1.13;;;0.88;;
24229;SDS011;12362;50.004;8.006;2023-04-08T00:28:01;0.90;;;0.20;;
24229;SDS011;12362;50.004;8.006;2023-04-08T00:31:18;0.55;;;0.45;;
24229;SDS011;12362;50.004;8.006;2023-04-08T00:34:23;0.22;;;0.22;;
24229;SDS011;12362;50.004;8.006;2023-04-08T00:37:39;0.93;;;0.40;;
24229;SDS011;12362;50.004;8.006;2023-04-08T00:40:38;4.43;;;1.38;;
24229;SDS011;12362;50.004;8.006;2023-04-08T00:43:44;1.83;;;0.68;;
24229;SDS011;12362;50.004;8.006;2023-04-08T00:47:24;0.17;;;0.17;;
24229;SDS011;12362;50.004;8.006;2023-04-08T00:50:34;0.55;;;0.40;;
24229;SDS011;12362;50.004;8.006;2023-04-08T00:53:29;0.82;;;0.30;;
24229;SDS011;12362;50.004;8.006;2023-04-08T00:56:37;0.35;;;0.35;;
24229;SDS011;12362;50.004;8.006;2023-04-08T01:00:01;0.15;;;0.15;;
24229;SDS011;12362;50.004;8.006;2023-04-08T01:17:06;0.30;;;0.30;;
24229;SDS011;12362;50.004;8.006;2023-04-08T01:20:08;0.40;;;0.40;;
24229;SDS011;12362;50.004;8.006;2023-04-08T01:23:15;3.85;;;0.75;;
24229;SDS011;12362;50.004;8.006;2023-04-08T01:29:56;0.45;;;0.20;;
24229;SDS011;12362;50.004;8.006;2023-04-08T01:32:55;2.13;;;0.70;;
24229;SDS011;12362;50.004;8.006;2023-04-08T01:35:56;1.30;;;0.20;;
24229;SDS011;12362;50.004;8.006;2023-04-08T01:38:56;1.20;;;0.60;;
24229;SDS011;12362;50.004;8.006;2023-04-08T01:41:45;2.25;;;0.47;;
24229;SDS011;12362;50.004;8.006;2023-04-08T01:45:02;1.10;;;0.43;;
24229;SDS011;12362;50.004;8.006;2023-04-08T01:51:36;0.40;;;0.40;;
24229;SDS011;12362;50.004;8.006;2023-04-08T01:58:07;0.30;;;0.30;;
24229;SDS011;12362;50.004;8.006;2023-04-08T02:00:59;0.75;;;0.20;;
24229;SDS011;12362;50.004;8.006;2023-04-08T02:04:05;0.50;;;0.40;;
24229;SDS011;12362;50.004;8.006;2023-04-08T02:07:47;2.03;;;0.82;;
24229;SDS011;12362;50.004;8.006;2023-04-08T02:20:52;0.88;;;0.63;;
24229;SDS011;12362;50.004;8.006;2023-04-08T02:23:52;0.40;;;0.20;;
24229;SDS011;12362;50.004;8.006;2023-04-08T02:26:43;1.23;;;0.65;;
24229;SDS011;12362;50.004;8.006;2023-04-08T02:30:01;0.60;;;0.60;;
24229;SDS011;12362;50.004;8.006;2023-04-08T02:33:07;0.95;;;0.47;;
24229;SDS011;12362;50.004;8.006;2023-04-08T02:36:33;1.17;;;0.40;;
24229;SDS011;12362;50.004;8.006;2023-04-08T02:39:31;1.63;;;0.50;;
24229;SDS011;12362;50.004;8.006;2023-04-08T02:42:24;2.20;;;0.93;;
24229;SDS011;12362;50.004;8.006;2023-04-08T02:45:24;0.50;;;0.40;;
24229;SDS011;12362;50.004;8.006;2023-04-08T02:48:43;0.50;;;0.50;;
24229;SDS011;12362;50.004;8.006;2023-04-08T02:51:42;2.47;;;0.90;;
24229;SDS011;12362;50.004;8.006;2023-04-08T02:54:59;1.95;;;0.82;;
24229;SDS011;12362;50.004;8.006;2023-04-08T02:57:54;1.00;;;0.45;;
24229;SDS011;12362;50.004;8.006;2023-04-08T03:01:01;1.38;;;0.52;;
24229;SDS011;12362;50.004;8.006;2023-04-08T03:07:33;1.38;;;0.45;;
24229;SDS011;12362;50.004;8.006;2023-04-08T03:10:32;1.67;;;0.73;;
24229;SDS011;12362;50.004;8.006;2023-04-08T03:13:36;0.50;;;0.50;;
24229;SDS011;12362;50.004;8.006;2023-04-08T03:16:30;4.95;;;0.70;;
24229;SDS011;12362;50.004;8.006;2023-04-08T03:19:46;1.58;;;0.55;;
24229;SDS011;12362;50.004;8.006;2023-04-08T03:22:50;0.90;;;0.40;;
24229;SDS011;12362;50.004;8.006;2023-04-08T03:26:10;3.45;;;0.90;;
24229;SDS011;12362;50.004;8.006;2023-04-08T03:32:50;3.30;;;1.10;;
24229;SDS011;12362;50.004;8.006;2023-04-08T03:35:48;1.55;;;0.77;;
24229;SDS011;12362;50.004;8.006;2023-04-08T03:38:50;2.33;;;0.65;;
24229;SDS011;12362;50.004;8.006;2023-04-08T03:41:50;1.55;;;0.60;;
24229;SDS011;12362;50.004;8.006;2023-04-08T03:44:56;2.00;;;0.40;;
24229;SDS011;12362;50.004;8.006;2023-04-08T03:48:02;0.43;;;0.40;;
24229;SDS011;12362;50.004;8.006;2023-04-08T03:51:16;3.83;;;1.10;;
24229;SDS011;12362;50.004;8.006;2023-04-08T03:54:23;3.00;;;0.88;;
24229;SDS011;12362;50.004;8.006;2023-04-08T03:57:35;4.07;;;1.00;;
24229;SDS011;12362;50.004;8.006;2023-04-08T04:00:36;0.65;;;0.52;;
24229;SDS011;12362;50.004;8.006;2023-04-08T04:03:39;3.15;;;1.00;;
24229;SDS011;12362;50.004;8.006;2023-04-08T04:06:55;2.25;;;1.02;;
24229;SDS011;12362;50.004;8.006;2023-04-08T04:10:11;5.43;;;0.63;;
24229;SDS011;12362;50.004;8.006;2023-04-08T04:13:18;1.27;;;0.67;;
24229;SDS011;12362;50.004;8.006;2023-04-08T04:16:30;5.43;;;0.70;;
24229;SDS011;12362;50.004;8.006;2023-04-08T04:19:38;5.03;;;0.93;;
24229;SDS011;12362;50.004;8.006;2023-04-08T04:22:53;3.13;;;0.95;;
24229;SDS011;12362;50.004;8.006;2023-04-08T04:25:50;3.75;;;1.48;;
24229;SDS011;12362;50.004;8.006;2023-04-08T04:29:00;2.97;;;1.15;;
24229;SDS011;12362;50.004;8.006;2023-04-08T04:32:03;4.10;;;0.98;;
24229;SDS011;12362;50.004;8.006;2023-04-08T04:35:05;0.70;;;0.50;;
24229;SDS011;12362;50.004;8.006;2023-04-08T04:38:18;2.33;;;1.07;;
24229;SDS011;12362;50.004;8.006;2023-04-08T04:41:26;4.33;;;1.07;;
24229;SDS011;12362;50.004;8.006;2023-04-08T04:48:17;0.65;;;0.45;;
24229;SDS011;12362;50.004;8.006;2023-04-08T04:51:09;1.63;;;0.70;;
24229;SDS011;12362;50.004;8.006;2023-04-08T06:45:24;1.92;;;1.35;;
24229;SDS011;12362;50.004;8.006;2023-04-08T06:47:50;2.67;;;1.10;;
24229;SDS011;12362;50.004;8.006;2023-04-08T06:50:15;3.65;;;1.13;;
24229;SDS011;12362;50.004;8.006;2023-04-08T06:52:41;3.72;;;0.93;;
24229;SDS011;12362;50.004;8.006;2023-04-08T06:55:06;3.33;;;1.35;;
24229;SDS011;12362;50.004;8.006;2023-04-08T06:57:33;4.57;;;1.10;;
24229;SDS011;12362;50.004;8.006;2023-04-08T06:59:58;4.53;;;1.75;;
24229;SDS011;12362;50.004;8.006;2023-04-08T07:02:24;4.28;;;1.90;;
24229;SDS011;12362;50.004;8.006;2023-04-08T07:04:51;1.95;;;1.52;;
24229;SDS011;12362;50.004;8.006;2023-04-08T07:07:18;4.57;;;1.67;;
24229;SDS011;12362;50.004;8.006;2023-04-08T07:09:44;3.10;;;1.88;;
24229;SDS011;12362;50.004;8.006;2023-04-08T07:12:11;1.33;;;0.98;;
24229;SDS011;12362;50.004;8.006;2023-04-08T07:14:37;5.20;;;1.58;;
24229;SDS011;12362;50.004;8.006;2023-04-08T07:17:02;4.95;;;1.33;;
24229;SDS011;12362;50.004;8.006;2023-04-08T07:19:27;4.57;;;1.63;;
24229;SDS011;12362;50.004;8.006;2023-04-08T07:21:53;5.00;;;1.02;;
24229;SDS011;12362;50.004;8.006;2023-04-08T07:24:18;4.47;;;1.02;;
24229;SDS011;12362;50.004;8.006;2023-04-08T07:26:44;2.95;;;1.23;;
24229;SDS011;12362;50.004;8.006;2023-04-08T07:29:10;5.78;;;1.20;;
24229;SDS011;12362;50.004;8.006;2023-04-08T07:31:36;3.15;;;0.98;;
24229;SDS011;12362;50.004;8.006;2023-04-08T07:34:01;6.80;;;1.90;;
24229;SDS011;12362;50.004;8.006;2023-04-08T07:36:27;6.68;;;0.93;;
24229;SDS011;12362;50.004;8.006;2023-04-08T07:38:52;2.65;;;1.15;;
24229;SDS011;12362;50.004;8.006;2023-04-08T07:41:18;5.53;;;1.25;;
24229;SDS011;12362;50.004;8.006;2023-04-08T07:43:45;5.80;;;1.00;;
24229;SDS011;12362;50.004;8.006;2023-04-08T07:46:11;3.33;;;1.10;;
24229;SDS011;12362;50.004;8.006;2023-04-08T07:48:37;3.85;;;1.13;;
24229;SDS011;12362;50.004;8.006;2023-04-08T07:51:03;1.67;;;0.80;;
24229;SDS011;12362;50.004;8.006;2023-04-08T07:53:33;1.52;;;1.08;;
24229;SDS011;12362;50.004;8.006;2023-04-08T07:55:59;1.23;;;0.90;;
24229;SDS011;12362;50.004;8.006;2023-04-08T07:58:26;1.85;;;0.98;;
24229;SDS011;12362;50.004;8.006;2023-04-08T08:00:51;3.60;;;1.50;;
24229;SDS011;12362;50.004;8.006;2023-04-08T08:03:17;5.60;;;1.63;;
24229;SDS011;12362;50.004;8.006;2023-04-08T08:05:43;3.33;;;1.30;;
24229;SDS011;12362;50.004;8.006;2023-04-08T08:08:09;3.78;;;1.10;;
24229;SDS011;12362;50.004;8.006;2023-04-08T08:10:37;2.47;;;1.23;;
24229;SDS011;12362;50.004;8.006;2023-04-08T08:13:04;3.63;;;1.50;;
24229;SDS011;12362;50.004;8.006;2023-04-08T08:15:30;2.75;;;1.10;;
24229;SDS011;12362;50.004;8.006;2023-04-08T08:17:56;3.97;;;1.35;;
24229;SDS011;12362;50.004;8.006;2023-04-08T08:20:22;4.63;;;0.90;;
24229;SDS011;12362;50.004;8.006;2023-04-08T08:22:47;6.15;;;1.48;;
24229;SDS011;12362;50.004;8.006;2023-04-08T08:25:13;5.13;;;1.45;;
24229;SDS011;12362;50.004;8.006;2023-04-08T08:27:39;3.80;;;0.90;;
24229;SDS011;12362;50.004;8.006;2023-04-08T08:30:06;6.45;;;2.05;;
24229;SDS011;12362;50.004;8.006;2023-04-08T08:32:33;2.65;;;1.23;;
24229;SDS011;12362;50.004;8.006;2023-04-08T08:34:59;5.50;;;1.38;;
24229;SDS011;12362;50.004;8.006;2023-04-08T08:37:25;2.72;;;1.05;;
24229;SDS011;12362;50.004;8.006;2023-04-08T08:39:54;3.00;;;1.17;;
24229;SDS011;12362;50.004;8.006;2023-04-08T08:44:46;1.55;;;0.68;;
24229;SDS011;12362;50.004;8.006;2023-04-08T08:47:12;2.63;;;0.73;;
24229;SDS011;12362;50.004;8.006;2023-04-08T08:49:37;1.98;;;1.17;;
24229;SDS011;12362;50.004;8.006;2023-04-08T08:52:03;1.88;;;0.93;;
24229;SDS011;12362;50.004;8.006;2023-04-08T08:54:29;8.98;;;1.77;;
24229;SDS011;12362;50.004;8.006;2023-04-08T08:56:55;3.55;;;1.17;;
24229;SDS011;12362;50.004;8.006;2023-04-08T08:59:21;4.68;;;1.38;;
24229;SDS011;12362;50.004;8.006;2023-04-08T09:01:47;1.67;;;1.33;;
24229;SDS011;12362;50.004;8.006;2023-04-08T09:04:16;1.98;;;1.27;;
24229;SDS011;12362;50.004;8.006;2023-04-08T09:06:50;1.65;;;0.70;;
24229;SDS011;12362;50.004;8.006;2023-04-08T09:09:51;4.35;;;1.15;;
24229;SDS011;12362;50.004;8.006;2023-04-08T09:12:17;8.15;;;1.77;;
24229;SDS011;12362;50.004;8.006;2023-04-08T09:14:43;6.25;;;1.65;;
24229;SDS011;12362;50.004;8.006;2023-04-08T09:17:09;4.00;;;1.25;;
24229;SDS011;12362;50.004;8.006;2023-04-08T09:19:35;5.60;;;1.15;;
24229;SDS011;12362;50.004;8.006;2023-04-08T09:24:34;5.90;;;1.50;;
24229;SDS011;12362;50.004;8.006;2023-04-08T09:27:01;7.88;;;1.10;;
24229;SDS011;12362;50.004;8.006;2023-04-08T09:29:29;3.10;;;0.85;;
24229;SDS011;12362;50.004;8.006;2023-04-08T09:31:56;2.33;;;1.17;;
24229;SDS011;12362;50.004;8.006;2023-04-08T09:34:23;4.80;;;1.55;;
24229;SDS011;12362;50.004;8.006;2023-04-08T09:36:50;5.25;;;1.42;;
24229;SDS011;12362;50.004;8.006;2023-04-08T09:39:16;2.05;;;1.00;;
24229;SDS011;12362;50.004;8.006;2023-04-08T09:41:43;1.92;;;1.20;;
24229;SDS011;12362;50.004;8.006;2023-04-08T09:44:11;4.35;;;1.08;;
24229;SDS011;12362;50.004;8.006;2023-04-08T09:49:11;5.30;;;1.45;;
24229;SDS011;12362;50.004;8.006;2023-04-08T09:51:52;3.90;;;0.63;;
24229;SDS011;12362;50.004;8.006;2023-04-08T09:54:26;2.90;;;1.20;;
24229;SDS011;12362;50.004;8.006;2023-04-08T09:57:04;5.45;;;1.05;;
24229;SDS011;12362;50.004;8.006;2023-04-08T09:59:43;1.35;;;0.93;;
24229;SDS011;12362;50.004;8.006;2023-04-08T10:02:21;3.05;;;0.90;;
24229;SDS011;12362;50.004;8.006;2023-04-08T10:04:53;3.08;;;1.13;;
24229;SDS011;12362;50.004;8.006;2023-04-08T10:07:23;1.27;;;0.85;;
24229;SDS011;12362;50.004;8.006;2023-04-08T10:09:49;3.15;;;1.05;;
24229;SDS011;12362;50.004;8.006;2023-04-08T10:12:15;3.72;;;1.35;;
24229;SDS011;12362;50.004;8.006;2023-04-08T10:14:41;2.65;;;1.23;;
24229;SDS011;12362;50.004;8.006;2023-04-08T10:17:26;6.35;;;0.75;;
24229;SDS011;12362;50.004;8.006;2023-04-08T10:19:52;1.92;;;0.70;;
24229;SDS011;12362;50.004;8.006;2023-04-08T10:23:04;2.65;;;1.05;;
24229;SDS011;12362;50.004;8.006;2023-04-08T10:27:41;2.35;;;1.55;;
24229;SDS011;12362;50.004;8.006;2023-04-08T10:30:53;3.55;;;1.23;;
24229;SDS011;12362;50.004;8.006;2023-04-08T10:32:57;5.18;;;1.38;;
24229;SDS011;12362;50.004;8.006;2023-04-08T10:35:38;3.30;;;0.95;;
24229;SDS011;12362;50.004;8.006;2023-04-08T10:38:07;8.98;;;1.20;;
24229;SDS011;12362;50.004;8.006;2023-04-08T10:40:37;5.97;;;1.55;;
24229;SDS011;12362;50.004;8.006;2023-04-08T10:43:05;3.35;;;1.30;;
24229;SDS011;12362;50.004;8.006;2023-04-08T10:45:31;2.65;;;1.15;;
24229;SDS011;12362;50.004;8.006;2023-04-08T10:48:10;1.98;;;0.90;;
24229;SDS011;12362;50.004;8.006;2023-04-08T10:51:11;1.30;;;1.00;;
24229;SDS011;12362;50.004;8.006;2023-04-08T10:53:36;1.35;;;0.93;;
24229;SDS011;12362;50.004;8.006;2023-04-08T10:56:07;2.08;;;1.00;;
24229;SDS011;12362;50.004;8.006;2023-04-08T10:58:35;2.95;;;1.02;;
24229;SDS011;12362;50.004;8.006;2023-04-08T11:01:12;4.35;;;0.90;;
24229;SDS011;12362;50.004;8.006;2023-04-08T11:03:37;1.17;;;0.57;;
24229;SDS011;12362;50.004;8.006;2023-04-08T11:06:03;2.05;;;0.90;;
24229;SDS011;12362;50.004;8.006;2023-04-08T11:08:29;1.88;;;0.88;;
24229;SDS011;12362;50.004;8.006;2023-04-08T11:10:59;3.88;;;1.08;;
24229;SDS011;12362;50.004;8.006;2023-04-08T11:13:26;3.00;;;0.60;;
24229;SDS011;12362;50.004;8.006;2023-04-08T11:15:53;1.65;;;0.80;;
24229;SDS011;12362;50.004;8.006;2023-04-08T11:18:19;4.43;;;0.88;;
24229;SDS011;12362;50.004;8.006;2023-04-08T11:20:48;1.05;;;0.45;;
24229;SDS011;12362;50.004;8.006;2023-04-08T11:23:15;3.47;;;1.10;;
24229;SDS011;12362;50.004;8.006;2023-04-08T11:25:42;1.80;;;0.73;;
24229;SDS011;12362;50.004;8.006;2023-04-08T11:28:09;1.42;;;0.88;;
24229;SDS011;12362;50.004;8.006;2023-04-08T11:30:37;2.65;;;0.90;;
24229;SDS011;12362;50.004;8.006;2023-04-08T11:33:03;1.75;;;0.98;;
24229;SDS011;12362;50.004;8.006;2023-04-08T11:35:29;0.85;;;0.63;;
24229;SDS011;12362;50.004;8.006;2023-04-08T11:37:58;4.75;;;1.02;;
24229;SDS011;12362;50.004;8.006;2023-04-08T11:40:23;2.33;;;0.90;;
24229;SDS011;12362;50.004;8.006;2023-04-08T11:42:50;3.35;;;0.88;;
24229;SDS011;12362;50.004;8.006;2023-04-08T11:45:17;1.77;;;0.68;;
24229;SDS011;12362;50.004;8.006;2023-04-08T11:47:45;2.42;;;0.90;;
24229;SDS011;12362;50.004;8.006;2023-04-08T11:50:17;3.20;;;0.80;;
24229;SDS011;12362;50.004;8.006;2023-04-08T11:52:55;0.60;;;0.60;;
24229;SDS011;12362;50.004;8.006;2023-04-08T11:55:28;2.03;;;0.90;;
24229;SDS011;12362;50.004;8.006;2023-04-08T11:57:56;4.90;;;0.82;;
24229;SDS011;12362;50.004;8.006;2023-04-08T12:00:26;1.15;;;0.32;;
24229;SDS011;12362;50.004;8.006;2023-04-08T12:02:53;1.48;;;0.65;;
24229;SDS011;12362;50.004;8.006;2023-04-08T12:05:19;1.65;;;0.75;;
24229;SDS011;12362;50.004;8.006;2023-04-08T12:07:50;1.95;;;1.02;;
24229;SDS011;12362;50.004;8.006;2023-04-08T12:10:18;2.25;;;1.08;;
24229;SDS011;12362;50.004;8.006;2023-04-08T12:12:44;2.38;;;0.82;;
24229;SDS011;12362;50.004;8.006;2023-04-08T12:15:10;0.63;;;0.45;;
24229;SDS011;12362;50.004;8.006;2023-04-08T12:17:36;0.30;;;0.30;;
24229;SDS011;12362;50.004;8.006;2023-04-08T12:20:03;1.58;;;0.40;;
24229;SDS011;12362;50.004;8.006;2023-04-08T12:22:30;0.30;;;0.30;;
24229;SDS011;12362;50.004;8.006;2023-04-08T12:24:56;1.63;;;0.73;;
24229;SDS011;12362;50.004;8.006;2023-04-08T12:27:21;1.23;;;0.90;;
24229;SDS011;12362;50.004;8.006;2023-04-08T12:29:47;1.20;;;0.63;;
24229;SDS011;12362;50.004;8.006;2023-04-08T12:32:14;0.52;;;0.40;;
24229;SDS011;12362;50.004;8.006;2023-04-08T12:34:39;1.20;;;0.57;;
24229;SDS011;12362;50.004;8.006;2023-04-08T12:37:05;1.33;;;0.80;;
24229;SDS011;12362;50.004;8.006;2023-04-08T12:39:30;2.10;;;0.77;;
24229;SDS011;12362;50.004;8.006;2023-04-08T12:41:56;1.73;;;0.68;;
24229;SDS011;12362;50.004;8.006;2023-04-08T12:44:22;1.65;;;0.57;;
24229;SDS011;12362;50.004;8.006;2023-04-08T12:46:48;2.05;;;0.70;;
24229;SDS011;12362;50.004;8.006;2023-04-08T12:49:13;2.33;;;0.60;;
24229;SDS011;12362;50.004;8.006;2023-04-08T12:51:39;1.75;;;0.80;;
24229;SDS011;12362;50.004;8.006;2023-04-08T12:54:05;0.80;;;0.47;;
24229;SDS011;12362;50.004;8.006;2023-04-08T12:56:31;0.55;;;0.55;;
24229;SDS011;12362;50.004;8.006;2023-04-08T12:58:57;0.30;;;0.30;;
24229;SDS011;12362;50.004;8.006;2023-04-08T13:01:23;2.95;;;0.65;;
24229;SDS011;12362;50.004;8.006;2023-04-08T13:06:49;1.90;;;0.80;;
24229;SDS011;12362;50.004;8.006;2023-04-08T13:09:15;0.50;;;0.43;;
24229;SDS011;12362;50.004;8.006;2023-04-08T13:11:41;1.75;;;0.63;;
24229;SDS011;12362;50.004;8.006;2023-04-08T13:14:06;1.58;;;0.70;;
24229;SDS011;12362;50.004;8.006;2023-04-08T13:16:32;1.67;;;0.50;;
24229;SDS011;12362;50.004;8.006;2023-04-08T13:18:58;3.95;;;1.00;;
24229;SDS011;12362;50.004;8.006;2023-04-08T13:21:23;2.63;;;0.45;;
24229;SDS011;12362;50.004;8.006;2023-04-08T13:23:49;2.50;;;0.80;;
24229;SDS011;12362;50.004;8.006;2023-04-08T13:26:14;1.80;;;0.68;;
24229;SDS011;12362;50.004;8.006;2023-04-08T13:28:40;1.27;;;0.60;;
24229;SDS011;12362;50.004;8.006;2023-04-08T13:31:05;0.77;;;0.68;;
24229;SDS011;12362;50.004;8.006;2023-04-08T13:33:31;3.78;;;0.60;;
24229;SDS011;12362;50.004;8.006;2023-04-08T13:35:56;0.63;;;0.43;;
24229;SDS011;12362;50.004;8.006;2023-04-08T13:38:22;1.17;;;0.57;;
24229;SDS011;12362;50.004;8.006;2023-04-08T13:40:47;4.05;;;0.47;;
24229;SDS011;12362;50.004;8.006;2023-04-08T13:43:17;1.02;;;0.40;;
24229;SDS011;12362;50.004;8.006;2023-04-08T13:45:45;1.30;;;0.55;;
24229;SDS011;12362;50.004;8.006;2023-04-08T13:48:10;1.95;;;0.40;;
24229;SDS011;12362;50.004;8.006;2023-04-08T13:50:36;1.00;;;0.70;;
24229;SDS011;12362;50.004;8.006;2023-04-08T13:53:03;1.08;;;0.77;;
24229;SDS011;12362;50.004;8.006;2023-04-08T13:55:29;1.17;;;0.77;;
24229;SDS011;12362;50.004;8.006;2023-04-08T13:57:54;0.57;;;0.40;;
24229;SDS011;12362;50.004;8.006;2023-04-08T14:00:20;4.05;;;0.90;;
24229;SDS011;12362;50.004;8.006;2023-04-08T14:02:46;0.35;;;0.35;;
24229;SDS011;12362;50.004;8.006;2023-04-08T14:05:12;1.17;;;0.60;;
24229;SDS011;12362;50.004;8.006;2023-04-08T14:07:37;1.83;;;0.70;;
24229;SDS011;12362;50.004;8.006;2023-04-08T14:10:03;0.90;;;0.45;;
24229;SDS011;12362;50.004;8.006;2023-04-08T14:12:29;0.95;;;0.55;;
24229;SDS011;12362;50.004;8.006;2023-04-08T14:14:55;0.30;;;0.25;;
24229;SDS011;12362;50.004;8.006;2023-04-08T14:17:20;2.80;;;0.98;;
24229;SDS011;12362;50.004;8.006;2023-04-08T14:19:46;1.15;;;0.50;;
24229;SDS011;12362;50.004;8.006;2023-04-08T14:22:11;0.50;;;0.50;;
24229;SDS011;12362;50.004;8.006;2023-04-08T14:24:37;0.57;;;0.35;;
24229;SDS011;12362;50.004;8.006;2023-04-08T14:27:02;1.90;;;0.43;;
24229;SDS011;12362;50.004;8.006;2023-04-08T14:29:28;0.57;;;0.47;;
24229;SDS011;12362;50.004;8.006;2023-04-08T14:31:54;2.67;;;0.57;;
24229;SDS011;12362;50.004;8.006;2023-04-08T14:34:20;1.77;;;0.32;;
24229;SDS011;12362;50.004;8.006;2023-04-08T14:36:45;0.55;;;0.47;;
24229;SDS011;12362;50.004;8.006;2023-04-08T14:39:11;0.38;;;0.28;;
24229;SDS011;12362;50.004;8.006;2023-04-08T14:41:36;3.42;;;0.70;;
24229;SDS011;12362;50.004;8.006;2023-04-08T14:44:02;0.60;;;0.35;;
24229;SDS011;12362;50.004;8.006;2023-04-08T14:46:28;0.10;;;0.10;;
24229;SDS011;12362;50.004;8.006;2023-04-08T14:48:54;0.20;;;0.20;;
24229;SDS011;12362;50.004;8.006;2023-04-08T14:51:20;4.32;;;0.70;;
24229;SDS011;12362;50.004;8.006;2023-04-08T14:53:45;0.50;;;0.30;;
24229;SDS011;12362;50.004;8.006;2023-04-08T14:56:11;0.93;;;0.40;;
24229;SDS011;12362;50.004;8.006;2023-04-08T14:58:36;0.20;;;0.17;;
24229;SDS011;12362;50.004;8.006;2023-04-08T15:01:02;1.08;;;0.45;;
24229;SDS011;12362;50.004;8.006;2023-04-08T15:03:27;1.85;;;0.38;;
24229;SDS011;12362;50.004;8.006;2023-04-08T15:05:57;0.55;;;0.52;;
24229;SDS011;12362;50.004;8.006;2023-04-08T15:08:39;0.30;;;0.20;;
24229;SDS011;12362;50.004;8.006;2023-04-08T15:11:04;0.77;;;0.35;;
24229;SDS011;12362;50.004;8.006;2023-04-08T15:13:30;1.33;;;0.60;;
24229;SDS011;12362;50.004;8.006;2023-04-08T15:15:56;0.73;;;0.30;;
24229;SDS011;12362;50.004;8.006;2023-04-08T15:18:21;1.92;;;1.10;;
24229;SDS011;12362;50.004;8.006;2023-04-08T15:20:54;1.70;;;0.57;;
24229;SDS011;12362;50.004;8.006;2023-04-08T15:23:20;1.35;;;0.40;;
24229;SDS011;12362;50.004;8.006;2023-04-08T15:25:46;0.90;;;0.40;;
24229;SDS011;12362;50.004;8.006;2023-04-08T15:28:12;0.30;;;0.30;;
24229;SDS011;12362;50.004;8.006;2023-04-08T15:30:38;0.63;;;0.47;;
24229;SDS011;12362;50.004;8.006;2023-04-08T15:33:07;0.80;;;0.55;;
24229;SDS011;12362;50.004;8.006;2023-04-08T15:35:33;0.60;;;0.40;;
24229;SDS011;12362;50.004;8.006;2023-04-08T15:38:01;0.77;;;0.77;;
24229;SDS011;12362;50.004;8.006;2023-04-08T15:40:27;0.20;;;0.20;;
24229;SDS011;12362;50.004;8.006;2023-04-08T15:42:53;1.55;;;0.60;;
24229;SDS011;12362;50.004;8.006;2023-04-08T15:45:18;1.20;;;0.85;;
24229;SDS011;12362;50.004;8.006;2023-04-08T15:47:44;1.30;;;0.65;;
24229;SDS011;12362;50.004;8.006;2023-04-08T15:50:10;3.13;;;0.90;;
24229;SDS011;12362;50.004;8.006;2023-04-08T15:52:36;1.48;;;0.73;;
24229;SDS011;12362;50.004;8.006;2023-04-08T15:55:01;2.35;;;0.70;;
24229;SDS011;12362;50.004;8.006;2023-04-08T15:57:27;1.60;;;0.73;;
24229;SDS011;12362;50.004;8.006;2023-04-08T15:59:55;0.98;;;0.43;;
24229;SDS011;12362;50.004;8.006;2023-04-08T16:02:23;0.40;;;0.40;;
24229;SDS011;12362;50.004;8.006;2023-04-08T16:04:49;3.05;;;0.82;;
24229;SDS011;12362;50.004;8.006;2023-04-08T16:07:14;0.73;;;0.32;;
24229;SDS011;12362;50.004;8.006;2023-04-08T16:09:40;1.33;;;0.55;;
24229;SDS011;12362;50.004;8.006;2023-04-08T16:12:06;0.47;;;0.47;;
24229;SDS011;12362;50.004;8.006;2023-04-08T16:14:32;0.68;;;0.50;;
24229;SDS011;12362;50.004;8.006;2023-04-08T16:16:58;1.75;;;0.65;;
24229;SDS011;12362;50.004;8.006;2023-04-08T16:19:24;1.15;;;0.32;;
24229;SDS011;12362;50.004;8.006;2023-04-08T16:21:50;0.50;;;0.40;;
24229;SDS011;12362;50.004;8.006;2023-04-08T16:24:15;0.70;;;0.30;;
24229;SDS011;12362;50.004;8.006;2023-04-08T16:26:45;0.40;;;0.30;;
24229;SDS011;12362;50.004;8.006;2023-04-08T16:29:11;0.40;;;0.30;;
24229;SDS011;12362;50.004;8.006;2023-04-08T16:31:36;1.10;;;0.20;;
24229;SDS011;12362;50.004;8.006;2023-04-08T16:34:02;0.50;;;0.50;;
24229;SDS011;12362;50.004;8.006;2023-04-08T16:36:29;0.55;;;0.20;;
24229;SDS011;12362;50.004;8.006;2023-04-08T16:38:54;0.50;;;0.32;;
24229;SDS011;12362;50.004;8.006;2023-04-08T16:41:20;3.80;;;0.52;;
24229;SDS011;12362;50.004;8.006;2023-04-08T16:43:46;1.33;;;0.43;;
24229;SDS011;12362;50.004;8.006;2023-04-08T16:46:15;1.00;;;0.20;;
24229;SDS011;12362;50.004;8.006;2023-04-08T16:48:42;0.88;;;0.70;;
24229;SDS011;12362;50.004;8.006;2023-04-08T16:51:09;2.60;;;0.63;;
24229;SDS011;12362;50.004;8.006;2023-04-08T16:53:35;0.40;;;0.30;;
24229;SDS011;12362;50.004;8.006;2023-04-08T16:56:02;0.93;;;0.40;;
24229;SDS011;12362;50.004;8.006;2023-04-08T17:04:22;1.17;;;0.63;;
24229;SDS011;12362;50.004;8.006;2023-04-08T17:06:47;1.40;;;0.43;;
24229;SDS011;12362;50.004;8.006;2023-04-08T17:09:13;0.95;;;0.30;;
24229;SDS011;12362;50.004;8.006;2023-04-08T17:11:39;0.95;;;0.30;;
24229;SDS011;12362;50.004;8.006;2023-04-08T17:14:04;0.73;;;0.70;;
24229;SDS011;12362;50.004;8.006;2023-04-08T17:16:33;0.60;;;0.40;;
24229;SDS011;12362;50.004;8.006;2023-04-08T17:18:59;1.10;;;0.40;;
24229;SDS011;12362;50.004;8.006;2023-04-08T17:21:24;0.43;;;0.30;;
24229;SDS011;12362;50.004;8.006;2023-04-08T17:23:51;0.20;;;0.20;;
24229;SDS011;12362;50.004;8.006;2023-04-08T17:26:16;0.75;;;0.35;;
24229;SDS011;12362;50.004;8.006;2023-04-08T17:28:42;0.30;;;0.20;;
24229;SDS011;12362;50.004;8.006;2023-04-08T17:31:09;1.33;;;0.57;;
24229;SDS011;12362;50.004;8.006;2023-04-08T17:33:38;0.85;;;0.38;;
24229;SDS011;12362;50.004;8.006;2023-04-08T17:36:04;0.20;;;0.20;;
24229;SDS011;12362;50.004;8.006;2023-04-08T17:38:29;0.90;;;0.30;;
24229;SDS011;12362;50.004;8.006;2023-04-08T17:40:56;1.25;;;0.47;;
24229;SDS011;12362;50.004;8.006;2023-04-08T17:43:24;0.45;;;0.20;;
24229;SDS011;12362;50.004;8.006;2023-04-08T17:45:59;0.30;;;0.30;;
24229;SDS011;12362;50.004;8.006;2023-04-08T17:48:25;1.38;;;0.40;;
24229;SDS011;12362;50.004;8.006;2023-04-08T17:51:01;1.38;;;0.60;;
24229;SDS011;12362;50.004;8.006;2023-04-08T17:53:28;0.65;;;0.50;;
24229;SDS011;12362;50.004;8.006;2023-04-08T17:55:54;0.68;;;0.43;;
24229;SDS011;12362;50.004;8.006;2023-04-08T17:58:21;0.70;;;0.60;;
24229;SDS011;12362;50.004;8.006;2023-04-08T18:00:47;1.55;;;0.50;;
24229;SDS011;12362;50.004;8.006;2023-04-08T18:03:13;0.30;;;0.30;;
24229;SDS011;12362;50.004;8.006;2023-04-08T18:05:39;0.40;;;0.40;;
24229;SDS011;12362;50.004;8.006;2023-04-08T18:08:04;1.48;;;0.68;;
24229;SDS011;12362;50.004;8.006;2023-04-08T18:10:30;1.65;;;0.82;;
24229;SDS011;12362;50.004;8.006;2023-04-08T18:12:56;1.25;;;0.60;;
24229;SDS011;12362;50.004;8.006;2023-04-08T18:15:33;0.68;;;0.60;;
24229;SDS011;12362;50.004;8.006;2023-04-08T18:18:00;0.77;;;0.50;;
24229;SDS011;12362;50.004;8.006;2023-04-08T18:20:25;0.20;;;0.20;;
24229;SDS011;12362;50.004;8.006;2023-04-08T18:22:51;0.65;;;0.45;;
24229;SDS011;12362;50.004;8.006;2023-04-08T18:25:16;0.55;;;0.30;;
24229;SDS011;12362;50.004;8.006;2023-04-08T18:27:46;0.90;;;0.63;;
24229;SDS011;12362;50.004;8.006;2023-04-08T18:30:15;0.98;;;0.50;;
24229;SDS011;12362;50.004;8.006;2023-04-08T18:32:41;2.25;;;0.40;;
24229;SDS011;12362;50.004;8.006;2023-04-08T18:35:07;0.80;;;0.40;;
24229;SDS011;12362;50.004;8.006;2023-04-08T18:37:32;0.85;;;0.55;;